createdAt,value
2017-10-15T00:01:50.912Z,71.70
2017-10-15T00:04:17.348Z,71.20
2017-10-15T00:06:44.498Z,71.00
2017-10-15T00:09:10.917Z,71.00
2017-10-15T00:11:37.309Z,71.00
2017-10-15T00:14:03.694Z,71.00
2017-10-15T00:16:30.132Z,70.80
2017-10-15T00:18:58.030Z,70.60
2017-10-15T00:21:25.244Z,70.80
2017-10-15T00:23:51.726Z,70.80
2017-10-15T00:26:18.116Z,70.90
2017-10-15T00:28:44.502Z,70.80
2017-10-15T00:31:10.922Z,71.20
2017-10-15T00:33:37.332Z,70.90
2017-10-15T00:36:04.503Z,70.60
2017-10-15T00:38:30.967Z,70.60
2017-10-15T00:40:57.403Z,71.20
2017-10-15T00:43:23.874Z,71.50
2017-10-15T00:45:51.814Z,70.90
2017-10-15T00:48:18.228Z,70.90
2017-10-15T00:50:44.644Z,70.90
2017-10-15T00:53:11.097Z,70.80
2017-10-15T00:55:37.578Z,71.20
2017-10-15T00:58:03.984Z,70.80
2017-10-15T01:00:30.448Z,70.50
2017-10-15T01:02:57.619Z,70.50
2017-10-15T01:05:24.053Z,70.50
2017-10-15T01:07:50.529Z,70.90
2017-10-15T01:10:16.965Z,71.20
2017-10-15T01:12:43.385Z,71.60
2017-10-15T01:15:09.828Z,71.90
2017-10-15T01:17:36.239Z,72.20
2017-10-15T01:20:02.662Z,72.40
2017-10-15T01:22:29.130Z,72.50
2017-10-15T01:24:55.676Z,72.70
2017-10-15T01:27:22.871Z,72.60
2017-10-15T01:29:49.305Z,72.50
2017-10-15T01:32:15.769Z,72.10
2017-10-15T01:34:42.226Z,72.30
2017-10-15T01:37:08.699Z,72.10
2017-10-15T01:39:35.957Z,71.60
2017-10-15T01:42:02.422Z,71.60
2017-10-15T01:44:29.241Z,71.30
2017-10-15T01:46:55.707Z,71.40
2017-10-15T01:49:22.172Z,71.30
2017-10-15T01:51:48.679Z,71.60
2017-10-15T01:54:15.107Z,71.50
2017-10-15T01:56:41.569Z,71.10
2017-10-15T01:59:09.461Z,71.80
2017-10-15T02:01:36.646Z,71.60
2017-10-15T02:04:03.052Z,71.60
2017-10-15T02:06:29.493Z,71.40
2017-10-15T02:08:55.926Z,71.00
2017-10-15T02:11:22.382Z,71.20
2017-10-15T02:13:48.852Z,71.30
2017-10-15T02:16:15.304Z,71.30
2017-10-15T02:18:42.469Z,71.30
2017-10-15T02:21:08.929Z,71.30
2017-10-15T02:23:35.361Z,70.90
2017-10-15T02:26:01.784Z,70.20
2017-10-15T02:28:28.183Z,71.20
2017-10-15T02:30:55.324Z,71.10
2017-10-15T02:33:22.746Z,71.70
2017-10-15T02:35:49.170Z,71.50
2017-10-15T02:38:15.568Z,71.90
2017-10-15T02:40:43.778Z,71.40
2017-10-15T02:43:10.243Z,71.40
2017-10-15T02:45:37.429Z,71.40
2017-10-15T02:48:04.593Z,71.90
2017-10-15T02:50:31.015Z,71.80
2017-10-15T02:52:57.444Z,72.10
2017-10-15T02:55:23.851Z,72.00
2017-10-15T02:57:50.997Z,71.30
2017-10-15T03:00:17.389Z,71.30
2017-10-15T03:02:43.815Z,71.20
2017-10-15T03:05:10.186Z,70.60
2017-10-15T03:07:37.324Z,70.50
2017-10-15T03:10:03.749Z,70.50
2017-10-15T03:12:30.189Z,70.50
2017-10-15T03:14:56.560Z,70.50
2017-10-15T03:17:22.959Z,70.40
2017-10-15T03:19:49.388Z,70.30
2017-10-15T03:22:16.546Z,70.60
2017-10-15T03:24:43.729Z,70.00
2017-10-15T03:27:10.885Z,70.00
2017-10-15T03:29:37.276Z,70.00
2017-10-15T03:32:05.149Z,69.90
2017-10-15T03:34:31.758Z,69.90
2017-10-15T03:36:58.167Z,70.20
2017-10-15T03:39:24.562Z,70.20
2017-10-15T03:41:51.759Z,70.40
2017-10-15T03:44:18.174Z,70.30
2017-10-15T03:46:44.607Z,69.90
2017-10-15T03:49:11.025Z,69.80
2017-10-15T03:51:38.168Z,69.90
2017-10-15T03:54:05.309Z,69.70
2017-10-15T03:56:31.699Z,69.60
2017-10-15T03:58:58.135Z,69.70
2017-10-15T04:01:24.545Z,69.30
2017-10-15T04:03:50.979Z,69.30
2017-10-15T04:06:17.368Z,69.50
2017-10-15T04:08:43.787Z,69.90
2017-10-15T04:11:10.213Z,69.20
2017-10-15T04:13:36.605Z,70.40
2017-10-15T04:16:03.009Z,70.50
2017-10-15T04:18:30.176Z,70.80
2017-10-15T04:20:56.609Z,70.80
2017-10-15T04:23:23.042Z,70.80
2017-10-15T04:25:49.447Z,70.70
2017-10-15T04:28:15.846Z,70.00
2017-10-15T04:30:42.272Z,70.20
2017-10-15T04:33:08.660Z,70.80
2017-10-15T04:35:35.787Z,71.10
2017-10-15T04:38:02.204Z,71.10
2017-10-15T04:40:28.600Z,70.80
2017-10-15T04:42:54.983Z,71.30
2017-10-15T04:45:21.460Z,71.10
2017-10-15T04:47:47.896Z,70.50
2017-10-15T04:50:14.300Z,70.50
2017-10-15T04:52:41.592Z,70.70
2017-10-15T04:55:07.988Z,70.70
2017-10-15T04:57:34.420Z,70.50
2017-10-15T05:00:01.590Z,70.50
2017-10-15T05:02:27.991Z,70.50
2017-10-15T05:04:55.143Z,69.90
2017-10-15T05:07:22.309Z,69.80
2017-10-15T05:09:49.463Z,69.80
2017-10-15T05:12:15.854Z,69.80
2017-10-15T05:14:42.288Z,69.80
2017-10-15T05:17:08.668Z,70.10
2017-10-15T05:19:35.069Z,70.00
2017-10-15T05:22:01.464Z,70.20
2017-10-15T05:24:27.902Z,70.20
2017-10-15T05:26:54.261Z,70.10
2017-10-15T05:29:20.674Z,69.90
2017-10-15T05:31:47.120Z,69.60
2017-10-15T05:34:14.309Z,69.60
2017-10-15T05:36:40.784Z,69.60
2017-10-15T05:39:07.206Z,69.80
2017-10-15T05:41:33.633Z,70.00
2017-10-15T05:44:00.058Z,69.90
2017-10-15T05:46:26.624Z,70.10
2017-10-15T05:48:54.569Z,69.80
2017-10-15T05:51:21.009Z,69.80
2017-10-15T05:53:47.460Z,70.30
2017-10-15T05:56:13.872Z,70.30
2017-10-15T05:58:40.357Z,69.60
2017-10-15T06:01:07.552Z,70.00
2017-10-15T06:03:34.065Z,69.80
2017-10-15T06:06:00.502Z,69.80
2017-10-15T06:08:26.923Z,70.10
2017-10-15T06:10:53.357Z,70.30
2017-10-15T06:13:19.799Z,70.30
2017-10-15T06:15:46.226Z,71.00
2017-10-15T06:18:12.664Z,71.50
2017-10-15T06:20:39.068Z,71.70
2017-10-15T06:23:06.271Z,71.00
2017-10-15T06:25:34.185Z,70.20
2017-10-15T06:28:01.309Z,70.40
2017-10-15T06:30:27.748Z,70.40
2017-10-15T06:32:54.147Z,67.20
2017-10-15T06:35:20.558Z,67.40
2017-10-15T06:37:46.965Z,66.60
2017-10-15T06:40:14.141Z,65.60
2017-10-15T06:42:40.525Z,65.50
2017-10-15T06:45:08.409Z,66.90
2017-10-15T06:47:36.313Z,67.00
2017-10-15T06:50:02.742Z,67.00
2017-10-15T06:52:29.113Z,66.90
2017-10-15T06:54:55.590Z,67.00
2017-10-15T06:57:22.046Z,67.70
2017-10-15T06:59:48.543Z,66.00
2017-10-15T07:02:15.793Z,64.80
2017-10-15T07:04:42.290Z,64.70
2017-10-15T07:07:08.723Z,64.80
2017-10-15T07:09:35.100Z,64.90
2017-10-15T07:12:01.494Z,64.70
2017-10-15T07:14:27.882Z,64.40
2017-10-15T07:16:54.276Z,64.20
2017-10-15T07:19:20.697Z,64.10
2017-10-15T07:21:47.096Z,63.20
2017-10-15T07:24:13.518Z,63.60
2017-10-15T07:26:39.916Z,65.10
2017-10-15T07:29:07.808Z,64.90
2017-10-15T07:31:34.250Z,65.00
2017-10-15T07:34:00.645Z,63.40
2017-10-15T07:36:27.067Z,64.50
2017-10-15T07:38:53.478Z,66.50
2017-10-15T07:41:19.879Z,67.10
2017-10-15T07:43:46.305Z,67.40
2017-10-15T07:46:12.681Z,68.40
2017-10-15T07:48:40.131Z,69.20
2017-10-15T07:51:06.533Z,67.30
2017-10-15T07:53:32.951Z,67.60
2017-10-15T07:55:59.383Z,67.20
2017-10-15T07:58:26.498Z,67.20
2017-10-15T08:00:52.875Z,67.20
2017-10-15T08:03:20.002Z,66.10
2017-10-15T08:05:46.631Z,66.10
2017-10-15T08:08:13.773Z,67.40
2017-10-15T08:10:40.182Z,67.40
2017-10-15T08:13:06.621Z,65.80
2017-10-15T08:15:33.046Z,65.20
2017-10-15T08:17:59.438Z,65.80
2017-10-15T08:20:26.629Z,66.70
2017-10-15T08:22:53.063Z,66.80
2017-10-15T08:25:19.455Z,66.50
2017-10-15T08:27:45.900Z,66.70
2017-10-15T08:30:12.328Z,65.60
2017-10-15T08:32:38.811Z,66.10
2017-10-15T08:35:06.010Z,67.30
2017-10-15T08:37:32.432Z,66.70
2017-10-15T08:39:59.599Z,64.40
2017-10-15T08:42:25.982Z,64.50
2017-10-15T08:44:52.439Z,64.80
2017-10-15T08:47:18.839Z,63.40
2017-10-15T08:49:45.274Z,63.70
2017-10-15T08:52:11.704Z,63.40
2017-10-15T08:54:38.100Z,62.80
2017-10-15T08:57:04.527Z,63.40
2017-10-15T08:59:30.994Z,64.20
2017-10-15T09:01:57.424Z,64.50
2017-10-15T09:04:24.620Z,63.60
2017-10-15T09:06:51.029Z,63.60
2017-10-15T09:09:17.448Z,63.90
2017-10-15T09:11:43.821Z,63.30
2017-10-15T09:14:11.040Z,62.40
2017-10-15T09:16:37.484Z,62.30
2017-10-15T09:19:03.861Z,62.60
2017-10-15T09:21:30.293Z,62.80
2017-10-15T09:23:56.736Z,63.20
2017-10-15T09:26:23.143Z,62.50
2017-10-15T09:28:50.298Z,62.10
2017-10-15T09:31:17.438Z,62.50
2017-10-15T09:33:44.641Z,61.70
2017-10-15T09:36:11.088Z,61.70
2017-10-15T09:38:37.493Z,62.20
2017-10-15T09:41:03.913Z,62.10
2017-10-15T09:43:30.351Z,60.90
2017-10-15T09:45:56.744Z,61.10
2017-10-15T09:48:23.891Z,60.70
2017-10-15T09:50:51.052Z,61.20
2017-10-15T09:53:18.195Z,59.10
2017-10-15T09:55:45.347Z,58.80
2017-10-15T09:58:12.482Z,59.40
2017-10-15T10:00:40.395Z,58.50
2017-10-15T10:03:06.826Z,58.50
2017-10-15T10:05:33.213Z,58.70
2017-10-15T10:07:59.610Z,58.80
2017-10-15T10:10:26.031Z,58.80
2017-10-15T10:12:52.446Z,59.00
2017-10-15T10:15:19.689Z,58.10
2017-10-15T10:17:46.873Z,58.70
2017-10-15T10:20:13.364Z,58.60
2017-10-15T10:22:40.544Z,58.90
2017-10-15T10:25:06.945Z,58.80
2017-10-15T10:27:34.177Z,60.00
2017-10-15T10:30:00.614Z,60.00
2017-10-15T10:32:27.061Z,60.90
2017-10-15T10:34:54.239Z,61.80
2017-10-15T10:37:20.621Z,61.80
2017-10-15T10:39:47.017Z,60.80
2017-10-15T10:42:13.403Z,61.60
2017-10-15T10:44:39.857Z,57.40
2017-10-15T10:47:07.025Z,55.80
2017-10-15T10:49:33.405Z,55.80
2017-10-15T10:51:59.852Z,54.30
2017-10-15T10:54:26.250Z,54.80
2017-10-15T10:56:52.729Z,52.80
2017-10-15T10:59:19.881Z,52.50
2017-10-15T11:01:47.032Z,51.50
2017-10-15T11:04:14.194Z,51.10
2017-10-15T11:06:41.352Z,49.60
2017-10-15T11:09:07.781Z,49.60
2017-10-15T11:11:34.253Z,49.20
2017-10-15T11:14:00.652Z,47.90
2017-10-15T11:16:27.129Z,46.80
2017-10-15T11:18:55.027Z,46.40
2017-10-15T11:21:22.196Z,45.40
2017-10-15T11:23:49.355Z,46.40
2017-10-15T11:26:15.787Z,46.30
2017-10-15T11:28:42.233Z,47.20
2017-10-15T11:31:08.635Z,48.10
2017-10-15T11:33:35.775Z,45.80
2017-10-15T11:36:02.964Z,46.80
2017-10-15T11:38:29.373Z,46.70
2017-10-15T11:40:56.561Z,48.30
2017-10-15T11:43:22.961Z,48.30
2017-10-15T11:45:50.142Z,50.30
2017-10-15T11:48:16.576Z,50.30
2017-10-15T11:50:42.975Z,48.80
2017-10-15T11:53:10.240Z,48.00
2017-10-15T11:55:36.689Z,47.90
2017-10-15T11:58:03.083Z,47.70
2017-10-15T12:00:30.972Z,47.30
2017-10-15T12:02:58.129Z,47.20
2017-10-15T12:05:24.535Z,47.20
2017-10-15T12:07:50.919Z,46.20
2017-10-15T12:10:17.321Z,46.60
2017-10-15T12:12:43.718Z,45.60
2017-10-15T12:15:10.098Z,46.80
2017-10-15T12:17:36.472Z,46.70
2017-10-15T12:20:02.919Z,46.50
2017-10-15T12:22:29.309Z,46.80
2017-10-15T12:24:55.845Z,46.70
2017-10-15T12:27:22.380Z,45.80
2017-10-15T12:29:48.793Z,45.20
2017-10-15T12:32:15.259Z,44.50
2017-10-15T12:34:41.657Z,45.10
2017-10-15T12:37:08.049Z,45.50
2017-10-15T12:39:34.432Z,44.70
2017-10-15T12:42:00.852Z,44.90
2017-10-15T12:44:27.268Z,45.40
2017-10-15T12:46:54.405Z,45.40
2017-10-15T12:49:22.290Z,45.50
2017-10-15T12:51:49.419Z,45.50
2017-10-15T12:54:16.624Z,45.30
2017-10-15T12:56:43.036Z,45.50
2017-10-15T12:59:09.463Z,45.90
2017-10-15T13:01:36.595Z,46.20
2017-10-15T13:04:03.729Z,46.10
2017-10-15T13:06:30.111Z,46.10
2017-10-15T13:08:56.529Z,45.90
2017-10-15T13:11:22.912Z,45.30
2017-10-15T13:13:49.325Z,45.30
2017-10-15T13:16:15.708Z,45.10
2017-10-15T13:18:42.098Z,45.30
2017-10-15T13:21:08.484Z,45.30
2017-10-15T13:23:35.630Z,45.30
2017-10-15T13:26:03.481Z,45.20
2017-10-15T13:28:31.413Z,45.00
2017-10-15T13:30:57.848Z,45.00
2017-10-15T13:33:24.245Z,44.90
2017-10-15T13:35:51.372Z,44.40
2017-10-15T13:38:18.517Z,45.40
2017-10-15T13:40:45.636Z,45.10
2017-10-15T13:43:12.758Z,44.70
2017-10-15T13:45:39.181Z,44.60
2017-10-15T13:48:05.568Z,45.00
2017-10-15T13:50:33.463Z,45.50
2017-10-15T13:53:01.039Z,45.60
2017-10-15T13:55:27.435Z,45.60
2017-10-15T13:57:54.036Z,45.70
2017-10-15T14:00:21.025Z,46.20
2017-10-15T14:02:48.922Z,46.80
2017-10-15T14:05:15.363Z,46.70
2017-10-15T14:07:41.791Z,47.10
2017-10-15T14:10:08.180Z,47.20
2017-10-15T14:12:34.590Z,46.80
2017-10-15T14:15:01.026Z,46.90
2017-10-15T14:17:27.430Z,47.00
2017-10-15T14:19:55.504Z,48.00
2017-10-15T14:22:21.970Z,48.00
2017-10-15T14:24:48.384Z,48.00
2017-10-15T14:27:14.873Z,48.60
2017-10-15T14:29:42.081Z,48.30
2017-10-15T14:32:08.507Z,48.30
2017-10-15T14:34:34.926Z,48.80
2017-10-15T14:37:01.310Z,49.00
2017-10-15T14:39:28.435Z,49.50
2017-10-15T14:41:54.860Z,49.80
2017-10-15T14:44:21.257Z,50.00
2017-10-15T14:46:48.372Z,50.20
2017-10-15T14:49:14.771Z,50.10
2017-10-15T14:51:41.253Z,50.70
2017-10-15T14:54:08.453Z,51.30
2017-10-15T14:56:34.886Z,51.30
2017-10-15T14:59:01.334Z,51.80
2017-10-15T15:01:27.758Z,51.50
2017-10-15T15:03:54.188Z,51.40
2017-10-15T15:06:20.654Z,51.60
2017-10-15T15:08:47.070Z,51.50
2017-10-15T15:11:13.485Z,51.70
2017-10-15T15:13:39.918Z,51.50
2017-10-15T15:16:06.315Z,51.40
2017-10-15T15:18:32.730Z,51.40
2017-10-15T15:20:59.843Z,51.90
2017-10-15T15:23:26.233Z,51.50
2017-10-15T15:25:52.611Z,51.50
2017-10-15T15:28:19.013Z,51.40
2017-10-15T15:30:47.562Z,50.80
2017-10-15T15:33:14.712Z,51.30
2017-10-15T15:35:41.872Z,52.30
2017-10-15T15:38:09.013Z,51.40
2017-10-15T15:40:36.172Z,51.50
2017-10-15T15:43:03.312Z,51.90
2017-10-15T15:45:30.453Z,51.80
2017-10-15T15:47:56.825Z,51.80
2017-10-15T15:50:23.207Z,52.00
2017-10-15T15:52:49.657Z,51.80
2017-10-15T15:55:16.957Z,52.10
2017-10-15T15:57:43.369Z,52.60
2017-10-15T16:00:09.756Z,52.70
2017-10-15T16:02:36.246Z,52.80
2017-10-15T16:05:02.701Z,53.10
2017-10-15T16:07:29.114Z,53.50
2017-10-15T16:09:55.585Z,53.70
2017-10-15T16:12:21.974Z,54.00
2017-10-15T16:14:48.406Z,54.50
2017-10-15T16:17:14.820Z,55.10
2017-10-15T16:19:41.191Z,55.40
2017-10-15T16:22:07.609Z,55.80
2017-10-15T16:24:34.016Z,56.00
2017-10-15T16:27:01.165Z,56.70
2017-10-15T16:29:28.331Z,56.80
2017-10-15T16:31:54.871Z,56.70
2017-10-15T16:34:21.304Z,57.00
2017-10-15T16:36:47.724Z,57.50
2017-10-15T16:39:15.024Z,58.20
2017-10-15T16:41:41.442Z,58.20
2017-10-15T16:44:07.862Z,58.20
2017-10-15T16:46:34.274Z,59.00
2017-10-15T16:49:01.479Z,59.00
2017-10-15T16:51:27.876Z,58.90
2017-10-15T16:53:54.656Z,59.50
2017-10-15T16:56:21.080Z,59.50
2017-10-15T16:58:47.481Z,60.20
2017-10-15T17:01:13.913Z,60.80
2017-10-15T17:03:40.343Z,60.80
2017-10-15T17:06:06.781Z,61.00
2017-10-15T17:08:33.944Z,61.50
2017-10-15T17:11:00.435Z,61.50
2017-10-15T17:13:26.864Z,61.40
2017-10-15T17:15:53.273Z,63.00
2017-10-15T17:18:19.714Z,63.10
2017-10-15T17:20:46.162Z,63.00
2017-10-15T17:23:14.100Z,64.30
2017-10-15T17:25:40.522Z,64.20
2017-10-15T17:28:06.908Z,64.20
2017-10-15T17:30:34.050Z,63.70
2017-10-15T17:33:00.428Z,64.00
2017-10-15T17:35:26.874Z,64.00
2017-10-15T17:37:53.279Z,64.00
2017-10-15T17:40:19.696Z,64.50
2017-10-15T17:42:46.887Z,65.10
2017-10-15T17:45:13.359Z,65.10
2017-10-15T17:47:40.022Z,65.10
2017-10-15T17:50:08.169Z,66.10
2017-10-15T17:52:34.647Z,66.10
2017-10-15T17:55:01.162Z,66.10
2017-10-15T17:57:28.341Z,65.80
2017-10-15T17:59:54.790Z,65.70
2017-10-15T18:02:27.001Z,65.70
2017-10-15T18:04:53.425Z,66.20
2017-10-15T18:07:19.796Z,66.40
2017-10-15T18:09:46.250Z,66.70
2017-10-15T18:12:13.031Z,67.10
2017-10-15T18:14:39.456Z,67.00
2017-10-15T18:17:05.860Z,66.40
2017-10-15T18:19:33.395Z,66.70
2017-10-15T18:22:00.020Z,66.10
2017-10-15T18:24:26.469Z,65.80
2017-10-15T18:26:52.876Z,65.00
2017-10-15T18:29:20.060Z,66.30
2017-10-15T18:31:46.543Z,66.30
2017-10-15T18:34:12.955Z,66.90
2017-10-15T18:36:39.381Z,67.20
2017-10-15T18:39:05.819Z,67.80
2017-10-15T18:41:32.252Z,67.10
2017-10-15T18:43:58.679Z,67.20
2017-10-15T18:46:25.110Z,67.30
2017-10-15T18:48:51.513Z,67.10
2017-10-15T18:51:18.020Z,66.90
2017-10-15T18:53:45.226Z,68.60
2017-10-15T18:56:11.654Z,68.30
2017-10-15T18:58:38.070Z,67.30
2017-10-15T19:01:04.478Z,67.30
2017-10-15T19:03:32.335Z,67.90
2017-10-15T19:05:58.732Z,67.90
2017-10-15T19:08:25.136Z,69.10
2017-10-15T19:10:51.564Z,68.40
2017-10-15T19:13:17.960Z,68.00
2017-10-15T19:15:44.432Z,67.50
2017-10-15T19:18:10.838Z,67.40
2017-10-15T19:20:37.267Z,67.00
2017-10-15T19:23:05.141Z,67.10
2017-10-15T19:25:32.291Z,67.30
2017-10-15T19:27:59.445Z,68.20
2017-10-15T19:30:26.661Z,67.70
2017-10-15T19:32:53.094Z,67.50
2017-10-15T19:35:19.496Z,68.20
2017-10-15T19:37:45.916Z,68.30
2017-10-15T19:40:12.353Z,68.60
2017-10-15T19:42:38.819Z,68.60
2017-10-15T19:45:05.213Z,68.10
2017-10-15T19:47:31.633Z,68.30
2017-10-15T19:49:58.107Z,68.20
2017-10-15T19:52:24.495Z,67.10
2017-10-15T19:54:51.660Z,67.50
2017-10-15T19:57:18.777Z,67.20
2017-10-15T19:59:45.907Z,66.70
2017-10-15T20:02:12.318Z,67.00
2017-10-15T20:04:38.733Z,67.20
2017-10-15T20:07:05.146Z,67.20
2017-10-15T20:09:32.297Z,67.20
2017-10-15T20:11:59.436Z,67.00
2017-10-15T20:14:26.633Z,67.00
2017-10-15T20:16:53.055Z,67.10
2017-10-15T20:19:19.485Z,67.10
2017-10-15T20:21:47.703Z,67.80
2017-10-15T20:24:14.192Z,67.80
2017-10-15T20:26:40.576Z,68.00
2017-10-15T20:29:07.718Z,68.60
2017-10-15T20:31:35.068Z,67.70
2017-10-15T20:34:01.486Z,67.60
2017-10-15T20:36:27.882Z,68.60
2017-10-15T20:38:54.286Z,68.30
2017-10-15T20:41:20.672Z,67.50
2017-10-15T20:43:47.085Z,67.20
2017-10-15T20:46:13.501Z,68.50
2017-10-15T20:48:40.672Z,68.10
2017-10-15T20:51:07.124Z,68.00
2017-10-15T20:53:33.514Z,68.30
2017-10-15T20:56:00.663Z,68.80
2017-10-15T20:58:27.792Z,68.90
2017-10-15T21:00:54.184Z,68.90
2017-10-15T21:03:20.592Z,68.90
2017-10-15T21:05:46.994Z,68.50
2017-10-15T21:08:14.117Z,69.10
2017-10-15T21:10:40.584Z,69.00
2017-10-15T21:13:07.725Z,69.30
2017-10-15T21:15:34.133Z,68.90
2017-10-15T21:18:00.541Z,69.00
2017-10-15T21:20:27.016Z,68.90
2017-10-15T21:22:54.892Z,69.40
2017-10-15T21:25:21.270Z,69.40
2017-10-15T21:27:47.672Z,69.20
2017-10-15T21:30:14.819Z,68.70
2017-10-15T21:32:41.970Z,69.30
2017-10-15T21:35:08.405Z,69.20
2017-10-15T21:37:35.536Z,69.00
2017-10-15T21:40:01.987Z,69.00
2017-10-15T21:42:29.171Z,68.10
2017-10-15T21:44:55.633Z,68.10
2017-10-15T21:47:22.054Z,68.00
2017-10-15T21:49:48.453Z,68.30
2017-10-15T21:52:14.867Z,68.30
2017-10-15T21:54:42.033Z,68.20
2017-10-15T21:57:09.171Z,67.60
2017-10-15T21:59:36.343Z,67.60
2017-10-15T22:02:02.846Z,67.60
2017-10-15T22:04:29.989Z,68.10
2017-10-15T22:06:57.124Z,68.80
2017-10-15T22:09:23.525Z,68.30
2017-10-15T22:11:49.975Z,68.50
2017-10-15T22:14:16.357Z,68.20
2017-10-15T22:16:43.483Z,68.10
2017-10-15T22:19:09.885Z,68.10
2017-10-15T22:21:42.418Z,68.40
2017-10-15T22:24:08.884Z,68.80
2017-10-15T22:26:35.310Z,68.70
2017-10-15T22:29:01.707Z,68.30
2017-10-15T22:31:28.873Z,67.10
2017-10-15T22:33:56.002Z,67.40
2017-10-15T22:36:23.138Z,67.60
2017-10-15T22:38:49.533Z,67.50
2017-10-15T22:41:16.095Z,67.70
2017-10-15T22:43:42.515Z,67.80
2017-10-15T22:46:08.942Z,67.70
2017-10-15T22:48:35.336Z,67.70
2017-10-15T22:51:02.467Z,67.20
2017-10-15T22:53:29.673Z,67.50
2017-10-15T22:55:56.112Z,67.50
2017-10-15T22:58:22.532Z,68.00
2017-10-15T23:00:48.993Z,67.80
2017-10-15T23:03:16.887Z,67.60
2017-10-15T23:05:44.048Z,67.50
2017-10-15T23:08:11.295Z,67.30
2017-10-15T23:10:38.424Z,68.40
2017-10-15T23:13:05.559Z,69.50
2017-10-15T23:15:31.988Z,69.40
2017-10-15T23:17:58.412Z,70.10
2017-10-15T23:20:24.819Z,69.30
2017-10-15T23:22:51.217Z,69.10
2017-10-15T23:25:18.382Z,68.80
2017-10-15T23:27:45.554Z,68.90
2017-10-15T23:30:11.948Z,68.90
2017-10-15T23:32:39.100Z,70.20
2017-10-15T23:35:06.268Z,69.70
2017-10-15T23:37:33.402Z,69.30
2017-10-15T23:40:00.538Z,69.00
2017-10-15T23:42:27.007Z,68.90
2017-10-15T23:44:53.588Z,68.40
2017-10-15T23:47:19.982Z,68.50
2017-10-15T23:49:46.429Z,69.10
2017-10-15T23:52:12.819Z,68.80
2017-10-15T23:54:39.958Z,69.10
2017-10-15T23:57:06.395Z,69.00
2017-10-15T23:59:32.802Z,68.80
